Allbright, Missouri
Current Conditions -  °F | °C
As of 3:15 PM on Saturday 25 Oct 2014 (Local Time) from KFAM Reporting Station
Clear Clear  
Wind Chill: 81°   Ceiling: Unl
Heat Index: 81°   Visibility: 10mi
Dew Point: 57°   Wind: 5mph
Humidity: 45%   Direction: 40°NE
Pressure: 30.04"   Gusts: NA
Location:  37.4061°N, 90.1985°W
Report Text: KFAM 252015Z AUTO 04004KT 10SM CLR 27/14 A3004 RMK AO1
Loading
Personal Weather Stations






























Interactive Weather Map
Tropical Storm Tracking
New forecast layout! Learn more

10-Day Weather Forecast

Advertisements
Track Severe Weather on mobile